createdAt,value
2023-04-03T00:01:00.234Z,52.67
2023-04-03T00:04:01.903Z,52.63
2023-04-03T00:07:03.448Z,52.52
2023-04-03T00:10:05.503Z,52.69
2023-04-03T00:13:07.674Z,52.85
2023-04-03T00:16:09.741Z,52.91
2023-04-03T00:19:12.848Z,52.83
2023-04-03T00:22:14.375Z,52.96
2023-04-03T00:25:15.991Z,52.77
2023-04-03T00:28:17.365Z,52.90
2023-04-03T00:31:18.865Z,52.90
2023-04-03T00:34:20.686Z,52.92
2023-04-03T00:37:22.105Z,52.99
2023-04-03T00:40:25.531Z,52.88
2023-04-03T00:43:28.173Z,52.80
2023-04-03T00:46:29.694Z,52.84
2023-04-03T00:49:31.267Z,52.99
2023-04-03T00:52:32.837Z,52.97
2023-04-03T00:55:36.326Z,52.93
2023-04-03T00:58:44.493Z,53.03
2023-04-03T01:01:46.007Z,53.20
2023-04-03T01:04:48.251Z,53.20
2023-04-03T01:07:51.221Z,53.20
2023-04-03T01:10:52.685Z,53.36
2023-04-03T01:13:56.573Z,53.38
2023-04-03T01:16:59.625Z,53.44
2023-04-03T01:20:19.886Z,53.32
2023-04-03T01:23:33.650Z,53.40
2023-04-03T01:26:36.598Z,53.54
2023-04-03T01:29:38.294Z,53.37
2023-04-03T01:32:39.773Z,53.52
2023-04-03T01:35:41.226Z,53.54
2023-04-03T01:38:42.645Z,53.64
2023-04-03T01:41:44.127Z,53.61
2023-04-03T01:44:50.968Z,53.70
2023-04-03T01:47:52.406Z,53.60
2023-04-03T01:50:54.479Z,53.74
2023-04-03T01:53:56.158Z,53.56
2023-04-03T01:56:57.613Z,53.65
2023-04-03T01:59:59.187Z,53.69
2023-04-03T02:03:01.372Z,53.71
2023-04-03T02:06:02.926Z,53.88
2023-04-03T02:09:05.005Z,53.77
2023-04-03T02:12:06.615Z,53.82
2023-04-03T02:15:08.538Z,53.81
2023-04-03T02:18:10.451Z,53.71
2023-04-03T02:21:11.871Z,53.78
2023-04-03T02:24:13.321Z,53.90
2023-04-03T02:27:14.877Z,53.82
2023-04-03T02:30:16.471Z,53.88
2023-04-03T02:33:18.755Z,53.90
2023-04-03T02:36:20.523Z,53.94
2023-04-03T02:39:27.954Z,53.97
2023-04-03T02:42:30.639Z,54.04
2023-04-03T02:45:32.133Z,54.01
2023-04-03T02:48:33.841Z,54.01
2023-04-03T02:51:35.334Z,54.01
2023-04-03T02:54:36.785Z,54.04
2023-04-03T02:57:41.298Z,54.16
2023-04-03T03:00:43.177Z,54.26
2023-04-03T03:03:44.598Z,54.30
2023-04-03T03:06:47.412Z,54.33
2023-04-03T03:09:48.961Z,54.60
2023-04-03T03:12:50.701Z,54.58
2023-04-03T03:15:52.558Z,54.47
2023-04-03T03:18:53.962Z,54.72
2023-04-03T03:21:55.355Z,54.77
2023-04-03T03:24:57.672Z,54.55
2023-04-03T03:27:59.059Z,54.85
2023-04-03T03:31:01.319Z,54.89
2023-04-03T03:34:02.809Z,54.94
2023-04-03T03:37:04.250Z,55.00
2023-04-03T03:40:06.192Z,55.32
2023-04-03T03:43:07.733Z,55.47
2023-04-03T03:46:09.574Z,55.79
2023-04-03T03:49:12.300Z,55.84
2023-04-03T03:52:14.104Z,55.84
2023-04-03T03:55:15.912Z,55.87
2023-04-03T03:58:17.742Z,56.06
2023-04-03T04:01:19.377Z,55.86
2023-04-03T04:04:26.206Z,56.06
2023-04-03T04:07:29.143Z,56.00
2023-04-03T04:10:31.612Z,55.74
2023-04-03T04:13:33.693Z,55.31
2023-04-03T04:16:35.926Z,54.78
2023-04-03T04:19:43.543Z,54.95
2023-04-03T04:22:45.054Z,51.82
2023-04-03T04:25:48.193Z,48.63
2023-04-03T04:28:50.317Z,50.68
2023-04-03T04:31:53.546Z,52.56
2023-04-03T04:34:56.924Z,52.96
2023-04-03T04:37:58.578Z,53.02
2023-04-03T04:41:00.324Z,52.90
2023-04-03T04:44:01.865Z,52.85
2023-04-03T04:47:03.679Z,53.02
2023-04-03T04:50:05.394Z,53.06
2023-04-03T04:53:07.754Z,53.40
2023-04-03T04:56:09.197Z,53.48
2023-04-03T04:59:12.152Z,53.74
2023-04-03T05:02:13.681Z,53.67
2023-04-03T05:05:17.696Z,53.67
2023-04-03T05:08:19.131Z,53.51
2023-04-03T05:11:21.233Z,53.69
2023-04-03T05:14:26.934Z,53.58
2023-04-03T05:17:30.338Z,53.46
2023-04-03T05:20:33.645Z,53.25
2023-04-03T05:23:35.196Z,53.02
2023-04-03T05:26:38.884Z,52.70
2023-04-03T05:29:45.217Z,52.48
2023-04-03T05:32:49.968Z,52.25
2023-04-03T05:36:05.667Z,49.42
2023-04-03T05:39:10.684Z,46.93
2023-04-03T05:42:18.122Z,47.18
2023-04-03T05:45:19.850Z,46.66
2023-04-03T05:48:21.624Z,46.23
2023-04-03T05:51:26.813Z,48.77
2023-04-03T05:54:31.043Z,50.36
2023-04-03T05:57:51.263Z,51.38
2023-04-03T06:00:53.038Z,51.89
2023-04-03T06:03:55.190Z,52.27
2023-04-03T06:06:58.330Z,52.60
2023-04-03T06:10:01.366Z,52.94
2023-04-03T06:13:03.137Z,53.16
2023-04-03T06:16:05.285Z,53.40
2023-04-03T06:19:07.750Z,53.33
2023-04-03T06:22:09.130Z,53.25
2023-04-03T06:25:11.112Z,53.13
2023-04-03T06:28:13.435Z,53.22
2023-04-03T06:31:14.904Z,53.29
2023-04-03T06:34:16.964Z,53.23
2023-04-03T06:37:19.393Z,53.19
2023-04-03T06:40:23.420Z,53.46
2023-04-03T06:43:25.357Z,53.14
2023-04-03T06:46:27.541Z,53.11
2023-04-03T06:49:29.857Z,53.06
2023-04-03T06:52:31.577Z,53.15
2023-04-03T06:55:33.130Z,53.06
2023-04-03T06:58:34.544Z,53.14
2023-04-03T07:01:36.124Z,53.23
2023-04-03T07:04:37.578Z,53.16
2023-04-03T07:07:39.333Z,53.34
2023-04-03T07:10:40.898Z,53.27
2023-04-03T07:13:42.294Z,53.41
2023-04-03T07:16:43.770Z,53.36
2023-04-03T07:19:45.209Z,53.42
2023-04-03T07:22:46.654Z,53.44
2023-04-03T07:25:48.716Z,53.07
2023-04-03T07:28:50.814Z,52.54
2023-04-03T07:31:52.364Z,52.73
2023-04-03T07:34:53.830Z,52.92
2023-04-03T07:37:55.254Z,53.04
2023-04-03T07:40:56.783Z,52.87
2023-04-03T07:43:58.535Z,53.00
2023-04-03T07:47:00.836Z,53.15
2023-04-03T07:50:02.565Z,53.32
2023-04-03T07:53:04.373Z,53.41
2023-04-03T07:56:05.884Z,53.36
2023-04-03T07:59:07.676Z,53.14
2023-04-03T08:02:12.478Z,52.99
2023-04-03T08:05:14.170Z,52.94
2023-04-03T08:08:21.299Z,52.88
2023-04-03T08:11:24.633Z,52.91
2023-04-03T08:14:26.161Z,52.84
2023-04-03T08:17:27.589Z,52.74
2023-04-03T08:20:29.002Z,52.81
2023-04-03T08:23:30.370Z,52.88
2023-04-03T08:26:31.956Z,52.90
2023-04-03T08:29:33.762Z,52.99
2023-04-03T08:32:37.053Z,53.00
2023-04-03T08:35:42.446Z,53.06
2023-04-03T08:38:44.106Z,53.30
2023-04-03T08:41:47.890Z,53.39
2023-04-03T08:45:04.560Z,53.67
2023-04-03T08:48:08.326Z,53.73
2023-04-03T08:51:15.876Z,53.89
2023-04-03T08:54:38.144Z,54.20
2023-04-03T08:57:45.323Z,54.20
2023-04-03T09:00:49.800Z,54.19
2023-04-03T09:03:51.771Z,54.23
2023-04-03T09:07:00.979Z,54.26
2023-04-03T09:10:03.933Z,54.35
2023-04-03T09:13:21.316Z,54.39
2023-04-03T09:16:29.073Z,54.58
2023-04-03T09:19:33.670Z,54.52
2023-04-03T09:22:45.704Z,54.79
2023-04-03T09:25:57.662Z,54.78
2023-04-03T09:29:01.695Z,54.84
2023-04-03T09:32:09.940Z,54.88
2023-04-03T09:35:23.409Z,55.07
2023-04-03T09:38:32.250Z,55.14
2023-04-03T09:41:34.223Z,55.16
2023-04-03T09:44:37.701Z,55.19
2023-04-03T09:47:39.513Z,55.16
2023-04-03T09:51:00.350Z,55.15
2023-04-03T09:54:22.072Z,55.19
2023-04-03T09:57:23.550Z,55.25
2023-04-03T10:00:29.240Z,55.24
2023-04-03T10:03:34.556Z,55.33
2023-04-03T10:06:41.655Z,55.08
2023-04-03T10:09:55.125Z,55.31
2023-04-03T10:13:07.414Z,55.25
2023-04-03T10:16:15.936Z,55.25
2023-04-03T10:19:34.426Z,55.26
2023-04-03T10:22:41.710Z,55.25
2023-04-03T10:25:50.080Z,55.35
2023-04-03T10:29:27.104Z,55.77
2023-04-03T10:32:31.389Z,56.00
2023-04-03T10:35:32.825Z,56.19
2023-04-03T10:38:44.348Z,56.31
2023-04-03T10:42:09.393Z,56.36
2023-04-03T10:45:31.728Z,56.27
2023-04-03T10:48:39.190Z,56.17
2023-04-03T10:51:46.447Z,56.27
2023-04-03T10:55:03.242Z,56.20
2023-04-03T10:58:05.777Z,56.33
2023-04-03T11:01:10.008Z,56.22
2023-04-03T11:04:12.678Z,56.61
2023-04-03T11:07:17.731Z,56.92
2023-04-03T11:10:25.132Z,57.10
2023-04-03T11:13:26.506Z,57.36
2023-04-03T11:16:30.606Z,57.47
2023-04-03T11:19:42.725Z,57.59
2023-04-03T11:22:46.187Z,57.63
2023-04-03T11:25:50.390Z,57.71
2023-04-03T11:28:59.416Z,57.72
2023-04-03T11:32:00.866Z,57.73
2023-04-03T11:35:05.682Z,57.73
2023-04-03T11:38:07.487Z,57.64
2023-04-03T11:41:11.469Z,57.75
2023-04-03T11:44:31.968Z,57.58
2023-04-03T11:47:47.037Z,57.69
2023-04-03T11:50:49.046Z,57.33
2023-04-03T11:53:50.485Z,57.14
2023-04-03T11:56:51.899Z,55.96
2023-04-03T11:59:53.308Z,52.72
2023-04-03T12:02:55.179Z,52.60
2023-04-03T12:06:06.412Z,53.02
2023-04-03T12:09:26.452Z,53.02
2023-04-03T12:12:33.268Z,53.12
2023-04-03T12:15:37.953Z,53.13
2023-04-03T12:18:43.860Z,53.08
2023-04-03T12:21:52.987Z,53.08
2023-04-03T12:24:54.524Z,52.94
2023-04-03T12:27:55.990Z,53.00
2023-04-03T12:30:57.487Z,53.03
2023-04-03T12:34:17.689Z,53.04
2023-04-03T12:37:31.369Z,53.01
2023-04-03T12:40:32.766Z,53.09
2023-04-03T12:43:46.332Z,53.06
2023-04-03T12:46:51.803Z,52.94
2023-04-03T12:49:54.023Z,52.98
2023-04-03T12:52:58.467Z,53.05
2023-04-03T12:56:19.931Z,53.18
2023-04-03T12:59:25.911Z,53.28
2023-04-03T13:02:29.084Z,53.30
2023-04-03T13:05:31.738Z,53.25
2023-04-03T13:08:33.351Z,53.38
2023-04-03T13:11:39.464Z,53.28
2023-04-03T13:14:57.646Z,53.50
2023-04-03T13:17:59.130Z,53.62
2023-04-03T13:21:14.821Z,53.53
2023-04-03T13:24:16.493Z,53.52
2023-04-03T13:27:18.347Z,53.46
2023-04-03T13:30:29.006Z,53.52
2023-04-03T13:33:34.748Z,53.66
2023-04-03T13:36:37.747Z,53.43
2023-04-03T13:39:39.842Z,53.57
2023-04-03T13:42:42.278Z,53.53
2023-04-03T13:45:54.675Z,53.53
2023-04-03T13:48:57.296Z,53.49
2023-04-03T13:52:07.342Z,53.43
2023-04-03T13:55:24.602Z,53.44
2023-04-03T13:58:29.268Z,53.53
2023-04-03T14:01:36.580Z,53.58
2023-04-03T14:04:38.149Z,53.35
2023-04-03T14:07:39.516Z,53.35
2023-04-03T14:10:41.508Z,53.34
2023-04-03T14:13:43.591Z,53.29
2023-04-03T14:16:46.902Z,53.17
2023-04-03T14:19:49.206Z,53.10
2023-04-03T14:22:52.118Z,53.09
2023-04-03T14:25:53.953Z,53.17
2023-04-03T14:28:56.444Z,52.85
2023-04-03T14:32:11.631Z,52.88
2023-04-03T14:35:16.350Z,52.85
2023-04-03T14:38:28.230Z,52.91
2023-04-03T14:41:29.769Z,52.97
2023-04-03T14:44:31.617Z,53.12
2023-04-03T14:47:33.290Z,53.05
2023-04-03T14:50:34.719Z,52.96
2023-04-03T14:53:39.275Z,53.07
2023-04-03T14:56:41.217Z,53.23
2023-04-03T14:59:43.172Z,53.36
2023-04-03T15:02:45.288Z,53.57
2023-04-03T15:05:47.763Z,53.48
2023-04-03T15:08:49.249Z,53.59
2023-04-03T15:11:51.728Z,53.47
2023-04-03T15:15:00.866Z,53.76
2023-04-03T15:18:04.460Z,53.67
2023-04-03T15:21:06.527Z,53.84
2023-04-03T15:24:07.916Z,53.71
2023-04-03T15:27:10.006Z,53.78
2023-04-03T15:30:15.993Z,53.91
2023-04-03T15:33:17.631Z,53.75
2023-04-03T15:39:25.832Z,53.83
2023-04-03T15:42:27.257Z,53.96
2023-04-03T15:45:31.942Z,54.02
2023-04-03T15:48:33.498Z,54.16
2023-04-03T15:51:35.015Z,54.03
2023-04-03T15:54:36.467Z,54.20
2023-04-03T16:00:44.263Z,54.25
2023-04-03T16:03:46.418Z,54.27
2023-04-03T16:06:48.151Z,54.36
2023-04-03T16:09:49.602Z,54.32
2023-04-03T16:12:51.071Z,54.39
2023-04-03T16:15:52.510Z,54.36
2023-04-03T16:18:54.961Z,54.51
2023-04-03T16:21:56.833Z,54.40
2023-04-03T16:24:58.228Z,54.56
2023-04-03T16:27:59.959Z,54.56
2023-04-03T16:31:02.114Z,54.51
2023-04-03T16:34:03.753Z,54.51
2023-04-03T16:37:05.228Z,54.73
2023-04-03T16:40:07.803Z,54.63
2023-04-03T16:43:09.162Z,54.78
2023-04-03T16:46:10.703Z,54.69
2023-04-03T16:49:12.219Z,54.71
2023-04-03T16:52:13.777Z,54.81
2023-04-03T16:55:15.389Z,54.77
2023-04-03T16:58:16.963Z,54.74
2023-04-03T17:01:19.300Z,54.66
2023-04-03T17:04:20.767Z,54.64
2023-04-03T17:07:22.992Z,54.57
2023-04-03T17:10:24.832Z,54.54
2023-04-03T17:13:32.054Z,54.57
2023-04-03T17:16:37.769Z,54.57
2023-04-03T17:19:40.182Z,54.55
2023-04-03T17:22:41.679Z,54.69
2023-04-03T17:25:43.116Z,54.72
2023-04-03T17:28:45.624Z,54.88
2023-04-03T17:31:48.143Z,54.88
2023-04-03T17:34:49.670Z,54.96
2023-04-03T17:37:51.165Z,55.27
2023-04-03T17:40:52.710Z,55.11
2023-04-03T17:43:56.834Z,55.23
2023-04-03T17:46:58.265Z,55.30
2023-04-03T17:49:59.695Z,55.23
2023-04-03T17:53:01.077Z,55.30
2023-04-03T17:56:10.489Z,55.36
2023-04-03T17:59:13.133Z,55.37
2023-04-03T18:02:14.772Z,55.38
2023-04-03T18:05:16.224Z,55.36
2023-04-03T18:08:17.665Z,55.29
2023-04-03T18:11:19.854Z,55.37
2023-04-03T18:14:22.865Z,55.34
2023-04-03T18:17:24.342Z,55.40
2023-04-03T18:20:25.769Z,55.49
2023-04-03T18:23:28.680Z,55.38
2023-04-03T18:26:30.231Z,55.38
2023-04-03T18:29:33.498Z,55.40
2023-04-03T18:32:35.047Z,55.41
2023-04-03T18:35:36.510Z,55.54
2023-04-03T18:38:38.357Z,55.39
2023-04-03T18:41:40.021Z,55.44
2023-04-03T18:44:42.313Z,55.40
2023-04-03T18:47:43.806Z,49.95
2023-04-03T18:50:45.696Z,49.73
2023-04-03T18:53:47.396Z,50.86
2023-04-03T18:56:48.799Z,51.82
2023-04-03T18:59:50.222Z,52.50
2023-04-03T19:02:51.885Z,52.79
2023-04-03T19:05:53.359Z,53.11
2023-04-03T19:08:54.889Z,53.28
2023-04-03T19:11:56.345Z,53.41
2023-04-03T19:14:57.728Z,53.60
2023-04-03T19:17:59.191Z,53.63
2023-04-03T19:21:01.818Z,53.95
2023-04-03T19:24:03.275Z,53.97
2023-04-03T19:27:04.690Z,54.13
2023-04-03T19:30:07.100Z,54.10
2023-04-03T19:33:08.884Z,54.22
2023-04-03T19:36:10.994Z,54.30
2023-04-03T19:39:14.768Z,54.33
2023-04-03T19:42:18.796Z,54.13
2023-04-03T19:45:20.317Z,52.04
2023-04-03T19:48:21.698Z,49.10
2023-04-03T19:51:23.167Z,45.75
2023-04-03T19:54:24.674Z,46.56
2023-04-03T19:57:27.029Z,48.13
2023-04-03T20:00:29.692Z,49.08
2023-04-03T20:03:31.352Z,49.54
2023-04-03T20:06:32.765Z,49.43
2023-04-03T20:09:34.550Z,49.54
2023-04-03T20:12:37.456Z,49.87
2023-04-03T20:15:41.994Z,50.04
2023-04-03T20:18:43.465Z,50.30
2023-04-03T20:21:45.085Z,50.53
2023-04-03T20:24:46.688Z,50.35
2023-04-03T20:27:48.528Z,50.71
2023-04-03T20:30:51.311Z,50.84
2023-04-03T20:33:53.296Z,51.04
2023-04-03T20:36:54.982Z,51.26
2023-04-03T20:39:56.462Z,51.32
2023-04-03T20:42:58.126Z,51.58
2023-04-03T20:46:01.334Z,51.48
2023-04-03T20:49:02.746Z,51.58
2023-04-03T20:52:05.353Z,51.69
2023-04-03T20:55:07.071Z,51.74
2023-04-03T20:58:08.539Z,52.16
2023-04-03T21:01:18.060Z,52.22
2023-04-03T21:04:26.480Z,52.14
2023-04-03T21:07:46.720Z,52.13
2023-04-03T21:11:06.795Z,52.30
2023-04-03T21:14:31.586Z,52.45
2023-04-03T21:17:33.281Z,52.19
2023-04-03T21:20:34.811Z,52.53
2023-04-03T21:23:36.219Z,52.37
2023-04-03T21:26:39.122Z,52.52
2023-04-03T21:29:40.525Z,52.40
2023-04-03T21:32:41.987Z,52.52
2023-04-03T21:35:43.401Z,52.38
2023-04-03T21:38:45.925Z,51.53
2023-04-03T21:41:48.788Z,50.06
2023-04-03T21:44:50.283Z,51.19
2023-04-03T21:47:51.884Z,51.37
2023-04-03T21:50:53.619Z,51.50
2023-04-03T21:53:55.391Z,51.34
2023-04-03T21:56:56.887Z,51.31
2023-04-03T21:59:58.673Z,51.29
2023-04-03T22:03:10.129Z,51.24
2023-04-03T22:06:12.690Z,51.41
2023-04-03T22:09:14.215Z,51.51
2023-04-03T22:12:15.618Z,51.45
2023-04-03T22:15:17.593Z,51.49
2023-04-03T22:18:18.975Z,51.40
2023-04-03T22:21:21.327Z,51.45
2023-04-03T22:24:22.793Z,51.52
2023-04-03T22:27:24.135Z,51.61
2023-04-03T22:30:25.886Z,51.70
2023-04-03T22:33:27.431Z,51.64
2023-04-03T22:36:28.827Z,51.77
2023-04-03T22:39:30.244Z,51.71
2023-04-03T22:42:31.631Z,51.90
2023-04-03T22:45:33.690Z,51.96
2023-04-03T22:48:35.452Z,51.91
2023-04-03T22:51:36.910Z,51.95
2023-04-03T22:54:38.282Z,52.10
2023-04-03T22:57:39.709Z,52.08
2023-04-03T23:00:44.441Z,52.08
2023-04-03T23:03:46.130Z,52.24
2023-04-03T23:06:47.557Z,52.27
2023-04-03T23:09:49.023Z,52.37
2023-04-03T23:12:50.417Z,52.23
2023-04-03T23:15:58.564Z,52.41
2023-04-03T23:19:00.608Z,52.51
2023-04-03T23:22:02.003Z,52.55
2023-04-03T23:25:03.547Z,52.68
2023-04-03T23:28:05.013Z,52.83
2023-04-03T23:31:07.016Z,52.81
2023-04-03T23:34:08.645Z,52.88
2023-04-03T23:37:13.127Z,52.98
2023-04-03T23:40:14.628Z,52.93
2023-04-03T23:43:16.154Z,52.98
2023-04-03T23:46:18.174Z,53.03
2023-04-03T23:49:19.633Z,53.06
2023-04-03T23:52:21.097Z,53.09
2023-04-03T23:55:22.808Z,53.05
2023-04-03T23:58:24.304Z,53.13
